Patterson Heights, Pennsylvania
Current Conditions -  °F | °C
As of 11:47 AM on Tuesday 21 Oct 2014 (Local Time) from KBVI Reporting Station
Moderate Rain Moderate Rain  
Wind Chill: 50°   Ceiling: 500
Heat Index: 50°   Visibility: 7mi
Dew Point: 48°   Wind: 9mph
Humidity: 94%   Direction: 340°NNW
Pressure: 29.9"   Gusts: NA
Location:  40.7641°N, 80.3864°W
Report Text: KBVI 211547Z 34008KT 7SM RA OVC005 10/09 A2990
Loading
Personal Weather Stations






























Interactive Weather Map New forecast layout! Learn more

10-Day Weather Forecast

Advertisements
Track Severe Weather on mobile